Time;durP1;ratioP1;P1;durP2;ratioP2;P2;SDS_P1;SDS_P2;PMS_P1;PMS_P2;Temp;Humidity;BMP_temperature;BMP_pressure;BME280_temperature;BME280_humidity;BME280_pressure;Samples;Min_cycle;Max_cycle;Signal;HPM_P1;HPM_P2
2023/06/04 00:00:22;;;;;;;1.08;0.60;;;;;;;22.03;43.84;102396.22;5001687;28;20369;-35
2023/06/04 00:02:48;;;;;;;0.63;0.52;;;;;;;22.03;43.94;102389.91;4998283;28;20046;-35
2023/06/04 00:05:15;;;;;;;0.65;0.60;;;;;;;22.02;44.31;102383.69;5001342;28;20057;-35
2023/06/04 00:07:42;;;;;;;0.50;0.50;;;;;;;22.01;43.96;102390.06;5003818;28;20054;-35
2023/06/04 00:10:09;;;;;;;0.60;0.52;;;;;;;22.01;43.82;102390.06;5003435;28;20054;-34
2023/06/04 00:12:36;;;;;;;0.63;0.43;;;;;;;22.01;43.97;102400.88;5001133;28;20093;-34
2023/06/04 00:15:02;;;;;;;0.90;0.70;;;;;;;22.01;43.71;102392.78;4998819;28;20050;-35
2023/06/04 00:17:29;;;;;;;0.70;0.63;;;;;;;22.01;43.79;102389.22;5002056;28;20069;-35
2023/06/04 00:19:56;;;;;;;0.82;0.60;;;;;;;22.01;44.08;102383.84;5001766;28;20060;-35
2023/06/04 00:22:23;;;;;;;1.30;0.63;;;;;;;22.00;44.08;102384.84;5000395;28;20489;-35
2023/06/04 00:24:50;;;;;;;0.77;0.57;;;;;;;22.00;43.84;102384.84;5005018;28;20173;-36
2023/06/04 00:27:16;;;;;;;0.60;0.55;;;;;;;21.99;43.89;102381.28;5002552;28;20061;-36
2023/06/04 00:29:43;;;;;;;1.40;0.50;;;;;;;21.99;43.78;102388.50;5003183;28;20134;-35
2023/06/04 00:32:10;;;;;;;0.93;0.50;;;;;;;21.98;44.02;102376.00;5002189;28;20050;-35
2023/06/04 00:34:37;;;;;;;2.35;0.50;;;;;;;21.97;43.92;102383.25;5000931;28;20050;-35
2023/06/04 00:37:03;;;;;;;0.82;0.55;;;;;;;21.97;43.96;102390.50;5005129;28;20050;-35
2023/06/04 00:39:30;;;;;;;1.50;0.60;;;;;;;21.96;44.01;102389.66;5003019;28;20121;-35
2023/06/04 00:41:57;;;;;;;0.82;0.60;;;;;;;21.96;43.85;102391.50;5003046;28;20061;-35
2023/06/04 00:44:24;;;;;;;1.10;0.70;;;;;;;21.95;43.94;102387.97;5009621;28;20342;-35
2023/06/04 00:46:53;;;;;;;0.40;0.40;;;;;;;21.94;44.10;102392.47;5008432;28;20508;-35
2023/06/04 00:49:20;;;;;;;1.25;0.65;;;;;;;21.93;43.98;102389.94;5004707;28;20042;-34
2023/06/04 00:51:47;;;;;;;0.60;0.40;;;;;;;21.93;44.01;102392.63;5008857;28;20050;-36
2023/06/04 00:54:17;;;;;;;0.70;0.50;;;;;;;21.91;43.89;102381.16;5010847;28;20042;-35
2023/06/04 00:56:44;;;;;;;0.73;0.50;;;;;;;21.92;44.40;102380.13;5012651;28;20141;-34
2023/06/04 00:59:11;;;;;;;0.57;0.47;;;;;;;21.91;44.07;102386.53;5011019;28;20061;-34
2023/06/04 01:02:01;;;;;;;0.40;0.40;;;;;;;21.89;44.17;102383.13;5011991;28;20057;-35
2023/06/04 01:04:41;;;;;;;0.65;0.60;;;;;;;21.89;44.06;102383.13;5009801;28;20053;-35
2023/06/04 01:07:09;;;;;;;0.40;0.40;;;;;;;21.88;43.93;102386.81;5009788;28;20386;-35
2023/06/04 01:09:37;;;;;;;0.73;0.55;;;;;;;21.86;44.09;102386.09;5004585;28;20046;-35
2023/06/04 01:12:05;;;;;;;0.90;0.60;;;;;;;21.86;44.06;102383.38;5005750;28;20082;-35
2023/06/04 01:14:33;;;;;;;1.25;0.40;;;;;;;21.85;44.24;102385.25;5001915;28;20348;-35
2023/06/04 01:17:11;;;;;;;0.70;0.50;;;;;;;21.84;44.27;102383.53;5004660;28;20136;-34
2023/06/04 01:20:00;;;;;;;1.35;0.45;;;;;;;21.83;44.32;102378.25;4999541;28;20427;-35
2023/06/04 01:22:47;;;;;;;0.60;0.60;;;;;;;21.82;44.20;102384.66;5002685;28;20493;-34
2023/06/04 01:25:26;;;;;;;0.70;0.63;;;;;;;21.82;44.04;102379.28;5002837;28;20396;-34
2023/06/04 01:27:56;;;;;;;0.60;0.50;;;;;;;21.81;44.30;102393.78;5002112;28;20054;-34
2023/06/04 01:30:26;;;;;;;0.40;0.40;;;;;;;21.80;44.21;102392.06;5002975;28;20051;-37
2023/06/04 01:32:54;;;;;;;1.83;0.40;;;;;;;21.79;44.02;102390.34;5002881;28;20504;-37
2023/06/04 01:35:22;;;;;;;0.50;0.30;;;;;;;21.78;44.13;102392.19;5002163;28;20057;-37
2023/06/04 01:37:52;;;;;;;0.52;0.40;;;;;;;21.77;44.18;102387.78;5002522;28;20684;-35
2023/06/04 01:40:19;;;;;;;0.73;0.60;;;;;;;21.78;44.38;102385.94;5002632;28;20046;-35
2023/06/04 01:42:45;;;;;;;0.90;0.70;;;;;;;21.76;44.14;102385.25;5002310;28;20058;-35
2023/06/04 01:45:12;;;;;;;0.93;0.55;;;;;;;21.76;44.51;102382.56;5001065;28;20153;-35
2023/06/04 01:47:39;;;;;;;0.68;0.45;;;;;;;21.74;44.22;102384.53;5002546;28;20077;-34
2023/06/04 01:50:10;;;;;;;0.70;0.63;;;;;;;21.74;44.63;102379.97;5002475;28;20599;-35
2023/06/04 01:52:37;;;;;;;0.70;0.60;;;;;;;21.74;44.34;102384.53;5004313;28;20547;-34
2023/06/04 01:55:07;;;;;;;0.40;0.40;;;;;;;21.74;44.44;102384.53;4997529;28;20439;-34
2023/06/04 01:57:35;;;;;;;0.45;0.45;;;;;;;21.72;44.06;102381.97;5002088;28;20042;-36
2023/06/04 02:00:04;;;;;;;0.45;0.45;;;;;;;21.72;44.38;102381.13;4999549;28;20050;-35
2023/06/04 02:02:30;;;;;;;0.40;0.40;;;;;;;21.71;44.14;102382.09;5000793;28;20089;-36
2023/06/04 02:04:57;;;;;;;1.05;0.75;;;;;;;21.71;44.19;102382.09;4999100;28;20050;-34
2023/06/04 02:07:25;;;;;;;0.47;0.47;;;;;;;21.69;44.27;102377.69;5001086;28;20073;-34
2023/06/04 02:09:52;;;;;;;1.20;0.60;;;;;;;21.68;44.53;102378.69;5005892;28;20128;-35
2023/06/04 02:12:19;;;;;;;0.70;0.60;;;;;;;21.68;44.51;102377.84;5000858;28;20144;-34
2023/06/04 02:14:45;;;;;;;0.93;0.60;;;;;;;21.67;44.16;102385.09;5001633;28;20125;-34
2023/06/04 02:17:12;;;;;;;0.55;0.55;;;;;;;21.66;44.21;102377.97;5000209;28;20050;-34
2023/06/04 02:19:44;;;;;;;0.60;0.60;;;;;;;21.65;44.25;102381.66;5007144;28;20050;-34
2023/06/04 02:22:12;;;;;;;0.68;0.60;;;;;;;21.66;44.50;102379.81;5002804;28;20104;-34
2023/06/04 02:24:39;;;;;;;0.70;0.60;;;;;;;21.66;44.55;102379.81;5003385;28;20338;-34
2023/06/04 02:27:06;;;;;;;0.80;0.50;;;;;;;21.64;44.47;102385.38;5002831;28;20053;-34
2023/06/04 02:29:33;;;;;;;0.50;0.50;;;;;;;21.63;44.37;102378.28;5005762;28;20461;-35
2023/06/04 02:31:59;;;;;;;0.93;0.60;;;;;;;21.62;44.33;102386.50;5000941;28;20315;-35
2023/06/04 02:34:26;;;;;;;1.40;0.70;;;;;;;21.62;44.43;102381.94;5007565;28;20052;-35
2023/06/04 02:36:53;;;;;;;2.17;0.60;;;;;;;21.62;44.16;102375.69;5006729;28;20073;-35
2023/06/04 02:39:20;;;;;;;1.08;0.45;;;;;;;21.60;44.72;102378.56;5006844;28;20164;-35
2023/06/04 02:41:47;;;;;;;1.00;0.60;;;;;;;21.61;44.37;102374.00;5001703;28;20054;-35
2023/06/04 02:44:13;;;;;;;0.98;0.60;;;;;;;21.59;44.70;102382.25;5005235;28;20092;-34
2023/06/04 02:46:40;;;;;;;0.70;0.50;;;;;;;21.58;44.60;102380.53;4998271;28;20046;-34
2023/06/04 02:49:07;;;;;;;0.40;0.40;;;;;;;21.57;44.45;102386.91;5000165;28;20050;-35
2023/06/04 02:51:33;;;;;;;1.38;0.65;;;;;;;21.57;44.65;102377.97;5002262;28;20054;-35
2023/06/04 02:54:00;;;;;;;0.68;0.50;;;;;;;21.55;44.50;102386.22;5005450;28;20050;-35
2023/06/04 02:56:26;;;;;;;0.70;0.50;;;;;;;;;;5003327;28;20129;-35
2023/06/04 02:58:55;;;;;;;1.23;0.65;;;;;;;;;;5004473;28;20493;-35
2023/06/04 03:01:23;;;;;;;0.50;0.50;;;;;;;21.53;44.56;102380.09;5002225;28;20101;-35
2023/06/04 03:03:50;;;;;;;0.80;0.50;;;;;;;21.52;44.56;102383.78;5002039;28;20052;-35
2023/06/04 03:06:20;;;;;;;0.40;0.40;;;;;;;21.52;44.72;102380.25;5004427;28;20052;-35
2023/06/04 03:08:51;;;;;;;1.27;0.43;;;;;;;21.51;44.83;102378.50;5004460;28;20046;-35
2023/06/04 03:11:21;;;;;;;0.40;0.40;;;;;;;21.51;44.55;102382.09;4998612;28;20073;-36
2023/06/04 03:13:48;;;;;;;0.32;0.32;;;;;;;21.50;44.48;102379.50;4997040;28;20054;-36
2023/06/04 03:16:15;;;;;;;1.35;0.50;;;;;;;21.49;44.39;102378.66;5007214;28;20103;-35
2023/06/04 03:18:42;;;;;;;0.52;0.52;;;;;;;21.48;44.39;102373.44;5000733;28;20046;-35
2023/06/04 03:21:11;;;;;;;0.88;0.57;;;;;;;21.48;44.87;102374.28;5004019;28;20101;-35
2023/06/04 03:23:38;;;;;;;0.40;0.40;;;;;;;21.47;44.53;102375.28;5000956;28;20061;-35
2023/06/04 03:26:05;;;;;;;0.50;0.50;;;;;;;21.47;44.68;102377.09;4996172;28;20047;-35
2023/06/04 03:28:33;;;;;;;0.68;0.50;;;;;;;21.46;44.38;102375.38;4997362;28;20045;-34
2023/06/04 03:31:00;;;;;;;0.73;0.50;;;;;;;21.46;44.34;102378.09;5006091;28;20062;-35
2023/06/04 03:33:26;;;;;;;1.10;0.55;;;;;;;21.46;44.67;102372.69;4997543;28;20074;-35
2023/06/04 03:35:53;;;;;;;0.68;0.65;;;;;;;21.44;44.34;102378.25;5005948;28;20388;-35
2023/06/04 03:38:19;;;;;;;0.40;0.30;;;;;;;21.43;44.32;102372.00;5001060;28;20654;-35
2023/06/04 03:40:46;;;;;;;0.70;0.52;;;;;;;21.43;44.85;102373.84;5004526;28;20053;-35
2023/06/04 03:43:13;;;;;;;1.13;0.47;;;;;;;21.42;44.80;102375.66;5000700;28;20068;-35
2023/06/04 03:45:39;;;;;;;0.52;0.52;;;;;;;21.42;44.37;102375.66;5001754;28;20081;-35
2023/06/04 03:48:06;;;;;;;0.40;0.40;;;;;;;21.42;45.07;102369.41;4999242;28;20046;-35
2023/06/04 03:50:32;;;;;;;0.38;0.38;;;;;;;21.41;44.59;102373.13;4997889;28;20057;-35
2023/06/04 03:52:59;;;;;;;2.03;0.50;;;;;;;21.41;44.52;102381.22;4999766;28;20427;-35
2023/06/04 03:55:26;;;;;;;0.98;0.50;;;;;;;21.40;44.74;102372.28;5005518;28;20053;-35
2023/06/04 03:57:53;;;;;;;1.35;0.40;;;;;;;21.41;44.69;102383.91;5002969;28;20080;-35
2023/06/04 04:00:20;;;;;;;0.43;0.43;;;;;;;21.40;44.50;102380.34;4999319;28;20438;-35
2023/06/04 04:02:47;;;;;;;0.60;0.43;;;;;;;21.40;44.88;102382.22;5000685;28;20054;-35
2023/06/04 04:05:14;;;;;;;0.60;0.60;;;;;;;21.39;44.54;102381.34;4999572;28;20057;-34
2023/06/04 04:07:43;;;;;;;0.63;0.40;;;;;;;21.39;44.59;102380.50;5001633;28;20058;-35
2023/06/04 04:10:09;;;;;;;0.70;0.50;;;;;;;21.38;44.59;102376.94;4999979;28;20383;-35
2023/06/04 04:12:36;;;;;;;0.60;0.60;;;;;;;21.39;44.43;102381.34;5006096;28;20049;-34
2023/06/04 04:15:04;;;;;;;1.63;0.50;;;;;;;21.38;44.88;102376.94;5004219;28;20638;-34
2023/06/04 04:17:31;;;;;;;0.60;0.40;;;;;;;21.38;44.61;102385.03;5001224;28;20046;-35
2023/06/04 04:19:57;;;;;;;0.60;0.50;;;;;;;21.38;44.63;102376.09;4999546;28;20323;-35
2023/06/04 04:22:24;;;;;;;0.50;0.50;;;;;;;21.38;44.65;102376.09;4999696;28;20116;-34
2023/06/04 04:24:51;;;;;;;0.43;0.43;;;;;;;21.39;44.34;102380.50;5033039;28;20063;-34
2023/06/04 04:27:17;;;;;;;0.52;0.40;;;;;;;21.38;44.74;102376.94;5001090;28;20054;-34
2023/06/04 04:29:47;;;;;;;0.38;0.38;;;;;;;21.37;44.72;102375.22;4998364;28;20054;-37
2023/06/04 04:32:16;;;;;;;0.57;0.57;;;;;;;21.38;44.57;102374.22;4997166;28;20046;-37
2023/06/04 04:34:54;;;;;;;0.98;0.55;;;;;;;21.38;44.45;102374.22;5002221;28;20064;-38
2023/06/04 04:37:21;;;;;;;1.27;0.52;;;;;;;21.39;44.71;102375.97;4999075;28;20050;-35
2023/06/04 04:39:51;;;;;;;0.60;0.60;;;;;;;21.40;44.51;102387.59;4999145;28;20042;-36
2023/06/04 04:42:19;;;;;;;0.65;0.57;;;;;;;21.41;44.65;102378.50;4998727;28;20058;-36
2023/06/04 04:44:47;;;;;;;0.52;0.50;;;;;;;21.41;44.23;102375.81;5003110;28;20046;-34
2023/06/04 04:47:15;;;;;;;0.60;0.50;;;;;;;21.42;44.91;102381.06;5003656;28;20139;-35
2023/06/04 04:49:42;;;;;;;1.52;0.50;;;;;;;21.43;44.46;102382.78;5004232;28;20130;-35
2023/06/04 04:52:08;;;;;;;1.35;0.68;;;;;;;21.44;44.83;102379.09;5005194;28;20448;-38
2023/06/04 04:54:35;;;;;;;0.50;0.50;;;;;;;21.46;44.37;102387.03;5006559;28;20053;-35
2023/06/04 04:57:02;;;;;;;0.82;0.55;;;;;;;21.47;44.48;102386.06;5005721;28;20438;-35
2023/06/04 04:59:40;;;;;;;0.47;0.43;;;;;;;21.49;44.38;102385.91;5001456;28;20046;-35
2023/06/04 05:02:06;;;;;;;0.63;0.50;;;;;;;21.50;44.46;102382.22;5005753;28;20103;-34
2023/06/04 05:04:33;;;;;;;0.55;0.50;;;;;;;21.52;44.52;102385.63;5004203;28;20089;-35
2023/06/04 05:07:00;;;;;;;0.82;0.60;;;;;;;21.53;44.55;102387.34;5006227;28;20133;-36
2023/06/04 05:09:26;;;;;;;1.00;0.70;;;;;;;;;;5011135;28;20049;-36
2023/06/04 05:11:53;;;;;;;0.60;0.60;;;;;;;21.56;44.64;102387.06;5006691;28;20049;-35
2023/06/04 05:14:20;;;;;;;1.35;0.70;;;;;;;21.58;44.50;102388.63;5005039;28;20045;-35
2023/06/04 05:16:48;;;;;;;0.82;0.50;;;;;;;21.60;44.57;102383.09;5004085;28;20481;-35
2023/06/04 05:19:16;;;;;;;0.50;0.50;;;;;;;21.62;44.31;102392.75;5007146;28;20065;-35
2023/06/04 05:21:44;;;;;;;0.95;0.55;;;;;;;21.64;44.07;102392.63;5000020;28;20050;-35
2023/06/04 05:24:10;;;;;;;0.73;0.55;;;;;;;21.65;44.16;102386.22;5005015;28;20054;-34
2023/06/04 05:26:39;;;;;;;0.60;0.45;;;;;;;21.67;44.17;102392.34;5004673;28;20129;-35
2023/06/04 05:29:07;;;;;;;2.05;0.60;;;;;;;21.70;44.16;102386.66;5002777;28;20172;-36
2023/06/04 05:31:34;;;;;;;0.73;0.45;;;;;;;21.72;43.88;102390.06;5003068;28;20455;-36
2023/06/04 05:34:04;;;;;;;0.60;0.50;;;;;;;21.75;44.44;102391.63;5003701;28;20073;-36
2023/06/04 05:36:31;;;;;;;0.90;0.50;;;;;;;21.77;44.29;102392.34;5002491;28;20053;-35
2023/06/04 05:38:59;;;;;;;0.68;0.50;;;;;;;21.79;44.15;102395.75;5001725;28;20095;-35
2023/06/04 05:41:27;;;;;;;0.50;0.50;;;;;;;21.81;43.97;102391.06;5002045;28;20053;-35
2023/06/04 05:43:54;;;;;;;1.10;0.60;;;;;;;21.83;44.22;102394.47;5002474;28;20090;-34
2023/06/04 05:46:21;;;;;;;0.73;0.47;;;;;;;21.86;43.97;102394.19;5000375;28;20042;-35
2023/06/04 05:48:48;;;;;;;1.10;0.40;;;;;;;21.88;44.29;102386.81;5002368;28;20144;-35
2023/06/04 05:51:15;;;;;;;1.00;0.52;;;;;;;21.92;44.04;102399.03;5000305;28;20054;-35
2023/06/04 05:53:42;;;;;;;0.45;0.45;;;;;;;21.93;43.73;102400.72;5001838;28;20046;-35
2023/06/04 05:56:08;;;;;;;1.60;0.70;;;;;;;21.94;43.89;102403.28;5003606;28;20058;-35
2023/06/04 05:58:35;;;;;;;0.95;0.60;;;;;;;21.97;43.81;102404.84;5000449;28;20078;-35
2023/06/04 06:01:02;;;;;;;1.50;0.60;;;;;;;21.99;43.75;102394.78;5001384;28;20097;-35
2023/06/04 06:03:29;;;;;;;0.88;0.70;;;;;;;22.00;43.64;102393.78;4998770;28;20352;-35
2023/06/04 06:05:58;;;;;;;0.55;0.50;;;;;;;22.01;43.69;102392.78;5003038;28;20050;-35
2023/06/04 06:08:25;;;;;;;0.60;0.50;;;;;;;22.03;43.42;102400.72;5000254;28;20088;-35
2023/06/04 06:10:51;;;;;;;1.38;0.60;;;;;;;22.03;43.52;102395.31;5004170;28;20100;-34
2023/06/04 06:13:18;;;;;;;1.38;0.60;;;;;;;22.03;43.45;102401.59;5001168;28;20204;-34
2023/06/04 06:15:48;;;;;;;0.63;0.50;;;;;;;22.03;43.33;102393.50;5033579;28;20533;-34
2023/06/04 06:18:15;;;;;;;0.73;0.40;;;;;;;22.03;43.65;102407.00;4997768;28;20133;-35
2023/06/04 06:20:42;;;;;;;1.25;0.50;;;;;;;22.03;43.49;102404.31;5001464;28;20054;-34
2023/06/04 06:23:09;;;;;;;0.65;0.57;;;;;;;22.04;43.64;102400.59;5003328;28;20489;-34
2023/06/04 06:25:36;;;;;;;2.38;0.60;;;;;;;22.03;43.61;102401.59;5005457;28;20050;-34
2023/06/04 06:28:02;;;;;;;0.55;0.50;;;;;;;22.04;43.59;102402.44;5001295;28;20460;-34
2023/06/04 06:30:29;;;;;;;0.85;0.60;;;;;;;22.04;43.77;102395.19;5006046;28;20366;-35
2023/06/04 06:32:56;;;;;;;0.52;0.50;;;;;;;22.04;43.57;102397.91;5000375;28;20434;-34
2023/06/04 06:35:23;;;;;;;0.70;0.57;;;;;;;22.05;43.57;102404.16;5005995;28;20053;-34
2023/06/04 06:37:49;;;;;;;1.65;0.95;;;;;;;22.05;43.65;102407.69;5008445;28;20446;-34
2023/06/04 06:40:16;;;;;;;0.57;0.47;;;;;;;22.06;43.60;102409.41;5009285;28;20438;-34
2023/06/04 06:42:48;;;;;;;0.73;0.70;;;;;;;22.05;43.31;102405.00;5006691;28;20092;-35
2023/06/04 06:45:15;;;;;;;0.50;0.50;;;;;;;22.06;43.40;102406.69;5007261;28;20100;-34
2023/06/04 06:47:42;;;;;;;0.50;0.50;;;;;;;22.08;43.51;102406.56;5005980;28;20378;-34
2023/06/04 06:50:09;;;;;;;0.50;0.50;;;;;;;22.08;43.33;102409.28;5003009;28;20037;-34
2023/06/04 06:52:35;;;;;;;0.90;0.70;;;;;;;22.07;43.49;102413.81;5007763;28;20111;-34
2023/06/04 06:55:03;;;;;;;1.38;0.57;;;;;;;22.07;43.44;102416.53;5009368;28;20100;-35
2023/06/04 06:57:30;;;;;;;0.55;0.47;;;;;;;22.08;43.39;102415.53;5001893;28;20054;-34
2023/06/04 06:59:57;;;;;;;1.70;0.55;;;;;;;22.08;43.29;102414.69;5001356;28;20076;-36
2023/06/04 07:02:23;;;;;;;0.70;0.60;;;;;;;22.06;43.58;102412.09;5004142;28;20050;-35
2023/06/04 07:04:50;;;;;;;0.47;0.47;;;;;;;22.05;43.30;102417.66;5004389;28;20085;-36
2023/06/04 07:07:17;;;;;;;0.52;0.52;;;;;;;22.05;43.34;102420.34;5003381;28;20054;-36
2023/06/04 07:09:44;;;;;;;1.00;0.60;;;;;;;22.04;43.30;102416.81;5001074;28;20137;-36
2023/06/04 07:12:11;;;;;;;1.75;0.57;;;;;;;22.04;43.29;102424.06;5001466;28;20145;-36
2023/06/04 07:14:37;;;;;;;0.85;0.70;;;;;;;22.03;43.38;102425.91;5002183;28;20061;-35
2023/06/04 07:17:04;;;;;;;0.85;0.65;;;;;;;22.03;43.38;102420.50;4995778;28;20100;-36
2023/06/04 07:19:30;;;;;;;1.10;0.55;;;;;;;22.04;43.04;102424.06;5000422;28;20061;-36
2023/06/04 07:21:57;;;;;;;0.47;0.40;;;;;;;22.04;43.42;102421.34;4998099;28;20085;-35
2023/06/04 07:24:24;;;;;;;0.70;0.60;;;;;;;22.04;43.15;102426.75;5001651;28;20473;-35
2023/06/04 07:26:51;;;;;;;0.50;0.50;;;;;;;22.04;43.32;102427.59;5002072;28;20345;-36
2023/06/04 07:29:17;;;;;;;0.70;0.60;;;;;;;22.04;43.23;102433.00;4998520;28;20105;-35
2023/06/04 07:31:44;;;;;;;1.20;0.60;;;;;;;22.05;43.39;102434.69;5001167;28;20062;-35
2023/06/04 07:34:10;;;;;;;0.63;0.50;;;;;;;22.04;43.28;102430.31;5001377;28;20046;-36
2023/06/04 07:36:37;;;;;;;0.98;0.60;;;;;;;22.03;43.07;102428.59;5003699;28;20096;-36
2023/06/04 07:39:07;;;;;;;0.63;0.60;;;;;;;22.06;43.17;102433.69;5001581;28;20480;-36
2023/06/04 07:41:33;;;;;;;0.80;0.57;;;;;;;22.07;43.42;102434.53;5002883;28;20045;-36
2023/06/04 07:44:00;;;;;;;0.40;0.40;;;;;;;22.07;43.49;102429.16;5001165;28;20116;-35
2023/06/04 07:46:27;;;;;;;0.63;0.43;;;;;;;22.07;43.37;102427.31;5001553;28;20054;-35
2023/06/04 07:48:54;;;;;;;0.98;0.60;;;;;;;22.09;43.44;102435.28;4997864;28;20053;-34
2023/06/04 07:51:20;;;;;;;0.98;0.60;;;;;;;22.08;43.07;102429.03;5001026;28;20050;-35
2023/06/04 07:53:47;;;;;;;0.73;0.50;;;;;;;22.09;43.26;102433.41;5003043;28;20064;-38
2023/06/04 07:56:13;;;;;;;0.98;0.60;;;;;;;22.10;43.12;102427.03;5000807;28;20120;-35
2023/06/04 07:58:41;;;;;;;0.73;0.52;;;;;;;22.11;43.08;102431.44;4997128;28;20137;-35
2023/06/04 08:01:08;;;;;;;1.98;0.63;;;;;;;22.12;43.49;102422.34;5000243;28;20046;-35
2023/06/04 08:03:35;;;;;;;0.98;0.40;;;;;;;22.13;43.03;102421.38;4997128;28;20053;-35
2023/06/04 08:06:02;;;;;;;0.98;0.47;;;;;;;22.14;43.35;102425.78;5001811;28;20117;-35
2023/06/04 08:08:30;;;;;;;1.75;0.52;;;;;;;22.15;43.12;102418.53;5000852;28;20049;-35
2023/06/04 08:10:57;;;;;;;1.27;0.50;;;;;;;22.16;43.01;102429.19;5000177;28;20042;-35
2023/06/04 08:13:24;;;;;;;0.60;0.47;;;;;;;22.17;43.42;102430.91;4997552;28;20058;-34
2023/06/04 08:15:51;;;;;;;1.08;0.70;;;;;;;22.17;43.03;102427.34;4998394;28;20057;-34
2023/06/04 08:18:17;;;;;;;1.33;0.60;;;;;;;22.19;43.41;102433.44;4999863;28;20402;-34
2023/06/04 08:20:44;;;;;;;1.27;0.40;;;;;;;22.20;43.05;102437.88;5002489;28;20082;-35
2023/06/04 08:23:11;;;;;;;0.80;0.60;;;;;;;22.21;43.17;102427.91;5006168;28;20478;-36
2023/06/04 08:25:38;;;;;;;0.90;0.50;;;;;;;22.22;43.17;102427.75;5004759;28;20116;-35
2023/06/04 08:28:04;;;;;;;1.30;0.55;;;;;;;22.22;43.03;102435.88;5001359;28;20058;-34
2023/06/04 08:30:31;;;;;;;1.27;0.70;;;;;;;22.23;43.18;102434.91;5000811;28;20111;-35
2023/06/04 08:32:58;;;;;;;1.38;0.90;;;;;;;22.24;42.89;102436.59;4997447;28;20069;-35
2023/06/04 08:35:25;;;;;;;0.85;0.50;;;;;;;22.24;43.05;102436.59;5005754;28;20148;-34
2023/06/04 08:37:51;;;;;;;0.85;0.50;;;;;;;22.26;42.81;102431.03;5007545;28;20045;-34
2023/06/04 08:40:18;;;;;;;1.25;0.50;;;;;;;22.26;42.87;102431.03;5004987;28;20065;-34
2023/06/04 08:42:46;;;;;;;0.55;0.50;;;;;;;22.27;42.83;102443.53;5002748;28;20062;-35
2023/06/04 08:45:17;;;;;;;1.05;0.70;;;;;;;22.27;42.84;102438.13;5006270;28;20085;-35
2023/06/04 08:47:48;;;;;;;0.70;0.50;;;;;;;22.27;42.63;102441.72;5004721;28;20350;-35
2023/06/04 08:50:20;;;;;;;0.93;0.60;;;;;;;22.28;42.83;102442.56;5005394;28;20038;-38
2023/06/04 08:52:47;;;;;;;1.73;0.52;;;;;;;22.29;43.08;102441.56;5002026;28;20090;-35
2023/06/04 08:55:14;;;;;;;1.75;0.63;;;;;;;22.30;42.92;102435.16;5004808;28;20730;-35
2023/06/04 08:57:40;;;;;;;0.77;0.50;;;;;;;22.31;42.89;102442.25;5005871;28;20046;-35
2023/06/04 09:00:08;;;;;;;3.08;0.60;;;;;;;22.32;42.85;102444.84;5009359;28;20361;-35
2023/06/04 09:02:38;;;;;;;0.85;0.40;;;;;;;22.33;42.80;102445.69;5005659;28;20497;-35
2023/06/04 09:05:10;;;;;;;0.85;0.55;;;;;;;22.33;42.67;102446.53;5008270;28;20061;-35
2023/06/04 09:07:40;;;;;;;1.35;0.60;;;;;;;22.35;42.74;102443.66;5006002;28;20081;-35
2023/06/04 09:10:08;;;;;;;0.43;0.43;;;;;;;22.36;42.94;102443.56;5007112;28;20775;-35
2023/06/04 09:12:42;;;;;;;0.82;0.40;;;;;;;22.38;42.74;102440.69;5002979;28;20089;-35
2023/06/04 09:15:10;;;;;;;0.85;0.60;;;;;;;22.40;42.75;102439.56;5006132;28;20068;-36
2023/06/04 09:17:37;;;;;;;1.17;0.50;;;;;;;22.42;42.92;102437.56;5006805;28;20401;-35
2023/06/04 09:20:08;;;;;;;1.58;0.80;;;;;;;22.44;42.91;102437.44;5006099;28;20090;-35
2023/06/04 09:22:36;;;;;;;1.20;0.60;;;;;;;22.46;42.92;102438.13;5004919;28;20088;-35
2023/06/04 09:25:10;;;;;;;1.00;0.50;;;;;;;22.49;42.62;102437.00;5007770;28;20358;-35
2023/06/04 09:27:40;;;;;;;0.55;0.50;;;;;;;22.53;42.71;102438.41;5002208;28;20338;-35
2023/06/04 09:30:10;;;;;;;0.68;0.60;;;;;;;22.57;42.62;102432.56;5005853;28;20050;-35
2023/06/04 09:32:37;;;;;;;0.90;0.55;;;;;;;22.61;42.60;102439.38;5001811;28;20402;-35
2023/06/04 09:35:11;;;;;;;0.75;0.50;;;;;;;22.65;42.54;102451.63;5005370;28;20078;-36
2023/06/04 09:37:42;;;;;;;0.75;0.50;;;;;;;22.69;42.58;102444.06;5006180;28;20082;-37
2023/06/04 09:40:10;;;;;;;1.27;0.65;;;;;;;22.75;42.75;102442.63;5003262;28;20042;-36
2023/06/04 09:42:49;;;;;;;1.73;0.45;;;;;;;22.79;42.47;102439.47;5004011;28;20137;-35
2023/06/04 09:45:28;;;;;;;0.85;0.70;;;;;;;22.83;42.43;102438.19;4998210;28;20384;-35
2023/06/04 09:47:55;;;;;;;0.63;0.40;;;;;;;22.89;42.73;102442.16;4999372;28;20133;-35
2023/06/04 09:50:31;;;;;;;1.10;0.43;;;;;;;22.93;42.70;102451.72;5000749;28;20049;-37
2023/06/04 09:52:58;;;;;;;1.38;0.50;;;;;;;22.97;42.53;102441.47;5002461;28;20061;-35
2023/06/04 09:55:25;;;;;;;0.88;0.50;;;;;;;23.01;42.52;102435.59;5000214;28;20054;-36
2023/06/04 09:57:53;;;;;;;1.02;0.65;;;;;;;23.06;42.44;102452.25;5002847;28;20068;-35
2023/06/04 10:00:22;;;;;;;0.90;0.60;;;;;;;23.07;42.66;102443.13;5003764;28;20050;-36
2023/06/04 10:02:55;;;;;;;0.50;0.43;;;;;;;23.12;42.40;102445.41;5003035;28;20377;-36
2023/06/04 10:05:23;;;;;;;0.40;0.40;;;;;;;23.15;42.60;102451.34;5001376;28;20084;-36
2023/06/04 10:07:52;;;;;;;0.82;0.60;;;;;;;23.19;42.20;102449.19;5003269;28;20049;-36
2023/06/04 10:10:25;;;;;;;0.52;0.43;;;;;;;23.22;42.29;102448.06;5002266;28;20393;-36
2023/06/04 10:13:02;;;;;;;0.50;0.40;;;;;;;23.25;42.57;102439.66;5001974;28;20493;-37
2023/06/04 10:15:29;;;;;;;0.50;0.40;;;;;;;23.29;42.18;102443.75;4998291;28;20053;-35
2023/06/04 10:17:56;;;;;;;0.98;0.40;;;;;;;23.31;42.00;102447.16;5000011;28;20104;-35
2023/06/04 10:20:23;;;;;;;1.05;0.70;;;;;;;23.34;42.30;102445.00;5001217;28;20046;-36
2023/06/04 10:22:50;;;;;;;1.73;0.57;;;;;;;23.36;42.20;102443.00;5001979;28;20058;-36
2023/06/04 10:25:18;;;;;;;0.73;0.60;;;;;;;23.38;42.25;102441.00;5001656;28;20446;-36
2023/06/04 10:27:46;;;;;;;0.60;0.55;;;;;;;23.41;42.29;102439.84;5004092;28;20117;-36
2023/06/04 10:30:13;;;;;;;0.75;0.50;;;;;;;23.44;42.23;102449.50;5002477;28;20093;-35
2023/06/04 10:32:40;;;;;;;0.43;0.40;;;;;;;23.47;42.02;102443.78;5000186;28;20101;-36
2023/06/04 10:35:08;;;;;;;0.90;0.47;;;;;;;23.49;42.18;102439.09;5003843;28;20069;-35
2023/06/04 10:37:35;;;;;;;1.13;0.57;;;;;;;23.50;41.90;102436.22;5004241;28;20107;-36
2023/06/04 10:40:04;;;;;;;1.05;0.60;;;;;;;23.53;41.82;102438.63;5006798;28;20112;-35
2023/06/04 10:42:39;;;;;;;0.40;0.40;;;;;;;23.55;41.85;102443.88;5002701;28;20041;-35
2023/06/04 10:45:08;;;;;;;0.88;0.60;;;;;;;23.58;41.92;102443.59;5033077;28;20438;-36
2023/06/04 10:47:37;;;;;;;0.55;0.43;;;;;;;23.60;42.12;102450.56;5005659;28;20129;-35
2023/06/04 10:50:11;;;;;;;0.65;0.50;;;;;;;23.61;41.99;102444.16;5006105;28;20073;-36
2023/06/04 10:52:49;;;;;;;1.05;0.88;;;;;;;23.64;42.24;102443.00;5006554;28;20053;-36
2023/06/04 10:55:16;;;;;;;0.95;0.60;;;;;;;23.66;41.66;102438.31;5010669;28;20085;-36
2023/06/04 10:57:57;;;;;;;0.52;0.50;;;;;;;23.68;42.31;102448.97;5008182;28;20430;-36
2023/06/04 11:00:41;;;;;;;1.27;0.57;;;;;;;23.69;41.78;102446.13;5002454;28;20042;-36
2023/06/04 11:03:10;;;;;;;2.38;0.63;;;;;;;23.73;41.85;102454.81;4998841;28;20060;-35
2023/06/04 11:05:39;;;;;;;1.27;0.63;;;;;;;23.74;41.66;102451.94;5003422;28;20108;-35
2023/06/04 11:08:06;;;;;;;1.23;0.60;;;;;;;23.76;41.93;102443.63;5006416;28;20318;-35
2023/06/04 11:10:39;;;;;;;2.15;0.68;;;;;;;23.77;42.21;102451.63;5010281;28;20346;-37
2023/06/04 11:13:06;;;;;;;1.00;0.60;;;;;;;23.80;41.56;102450.44;5003368;28;20061;-36
2023/06/04 11:15:42;;;;;;;1.15;0.80;;;;;;;23.81;41.88;102444.06;5003355;28;20475;-35
2023/06/04 11:18:17;;;;;;;0.93;0.65;;;;;;;23.83;41.70;102442.03;5000689;28;20053;-35
2023/06/04 11:20:45;;;;;;;0.50;0.47;;;;;;;23.85;41.88;102442.75;5009618;28;20045;-35
2023/06/04 11:23:13;;;;;;;1.02;0.52;;;;;;;23.86;41.58;102444.44;5001592;28;20100;-36
2023/06/04 11:25:42;;;;;;;1.65;0.57;;;;;;;23.90;41.90;102453.97;4998371;28;20045;-36
2023/06/04 11:28:15;;;;;;;0.60;0.43;;;;;;;23.91;41.54;102438.56;4997820;28;20108;-34
2023/06/04 11:30:42;;;;;;;0.52;0.47;;;;;;;23.91;42.05;102436.69;4998960;28;20041;-34